Etusivu
METAR-TAF:

METAR-TAF

Lentoasemat :

Aurora Municipal Airport (Al Potter Field)

Aurora, Nebraska, Yhdysvallat

Leveyspiiri: 40-53-38N, Pituuspiiri: 097-59-40W, korkeus merenpinnasta: 550 m

Tämänhetkinen sää

Tämä raportti tehtiin 48 minuuttia sitten, kello 14.55 UTC
Tuuli 7 kn etelästä/kaakosta
Lämpötila 20°C
Kosteus 94%
Ilmanpaine 1025 hPa
Näkyvyys: 11.3 km
Pilvistä 300 ft:n korkeudessa

METAR: KAUH 201455Z AUTO 15007KT 7SM OVC003 20/19 A3026 RMK AO2 LTG DSNT NE T01950193

Aika: 10:43 (15:43 UTC)


TAF: puuttuu

Säähavainnot ja -ennusteet yli 4000 lentoasemalta (METAR- ja TAF-raportit).

Käytössä olevat sääasemat on merkitty karttaan keltaisilla ja punaisilla pisteillä.

Aseta hiiri pisteen päälle nähdäksesi sääaseman nimen.

Klikkaa sitten nähdäksesi säähavainnot ja -ennusteet.

Kartan vaihtaminen: klikkaa mustalla rastilla varustettuja vihreitä pisteitä, niin voit zoomata sisään; viivalla varustettua vihreää pistettä, niin voit zoomata ulos tai vihreitä nuolia, niin pääset viereisille kartoille.


METAR-TAF: